createdAt,value
2023-01-29T00:01:55.618Z,11.52
2023-01-29T00:04:27.453Z,12.43
2023-01-29T00:06:58.215Z,12.73
2023-01-29T00:09:30.861Z,12.57
2023-01-29T00:12:01.804Z,13.07
2023-01-29T00:14:32.767Z,12.55
2023-01-29T00:17:05.408Z,11.98
2023-01-29T00:19:37.450Z,11.70
2023-01-29T00:22:08.484Z,12.23
2023-01-29T00:24:40.784Z,12.32
2023-01-29T00:27:11.968Z,11.82
2023-01-29T00:29:43.341Z,12.13
2023-01-29T00:32:36.795Z,12.55
2023-01-29T00:35:08.818Z,13.02
2023-01-29T00:37:41.578Z,11.63
2023-01-29T00:40:12.776Z,12.88
2023-01-29T00:45:47.329Z,11.98
2023-01-29T00:48:19.184Z,12.00
2023-01-29T00:51:15.924Z,12.23
2023-01-29T00:53:47.716Z,11.38
2023-01-29T00:56:18.672Z,11.70
2023-01-29T00:58:49.791Z,12.23
2023-01-29T01:01:42.118Z,12.52
2023-01-29T01:04:15.107Z,12.30
2023-01-29T01:06:46.111Z,12.23
2023-01-29T01:09:35.844Z,12.80
2023-01-29T01:12:08.428Z,12.40
2023-01-29T01:14:39.600Z,12.23
2023-01-29T01:17:10.777Z,13.00
2023-01-29T01:19:41.548Z,12.15
2023-01-29T01:22:12.937Z,13.07
2023-01-29T01:24:44.096Z,12.63
2023-01-29T01:27:15.910Z,14.27
2023-01-29T01:29:47.997Z,12.93
2023-01-29T01:32:19.491Z,12.43
2023-01-29T01:34:50.507Z,13.13
2023-01-29T01:37:21.941Z,13.30
2023-01-29T01:39:55.011Z,12.68
2023-01-29T01:42:32.483Z,13.27
2023-01-29T01:45:07.748Z,13.52
2023-01-29T01:47:49.891Z,12.77
2023-01-29T01:50:46.359Z,13.50
2023-01-29T01:53:28.238Z,13.60
2023-01-29T01:56:04.114Z,12.55
2023-01-29T01:58:55.788Z,12.95
2023-01-29T02:01:31.760Z,12.32
2023-01-29T02:04:29.127Z,12.52
2023-01-29T02:07:21.395Z,12.50
2023-01-29T02:10:04.117Z,12.98
2023-01-29T02:12:36.190Z,12.32
2023-01-29T02:15:08.895Z,12.48
2023-01-29T02:17:41.159Z,11.90
2023-01-29T02:20:25.916Z,12.18
2023-01-29T02:23:16.441Z,12.98
2023-01-29T02:26:22.692Z,12.93
2023-01-29T02:29:23.981Z,13.38
2023-01-29T02:32:30.422Z,13.57
2023-01-29T02:35:33.071Z,12.05
2023-01-29T02:38:04.371Z,12.82
2023-01-29T02:40:48.771Z,12.88
2023-01-29T02:43:48.420Z,12.27
2023-01-29T02:46:34.379Z,12.82
2023-01-29T02:49:24.466Z,13.55
2023-01-29T02:52:21.068Z,11.73
2023-01-29T02:55:10.258Z,12.25
2023-01-29T02:57:45.352Z,13.25
2023-01-29T03:00:24.535Z,12.38
2023-01-29T03:03:15.541Z,12.70
2023-01-29T03:06:29.812Z,12.18
2023-01-29T03:09:04.734Z,12.43
2023-01-29T03:11:43.069Z,12.02
2023-01-29T03:14:56.740Z,11.80
2023-01-29T03:17:35.218Z,12.63
2023-01-29T03:20:10.807Z,11.88
2023-01-29T03:22:46.245Z,11.95
2023-01-29T03:25:40.561Z,11.95
2023-01-29T03:28:33.225Z,11.80
2023-01-29T03:31:27.453Z,12.50
2023-01-29T03:34:36.170Z,12.05
2023-01-29T03:37:24.246Z,11.80
2023-01-29T03:39:58.088Z,12.15
2023-01-29T03:42:41.555Z,11.60
2023-01-29T03:45:34.748Z,11.23
2023-01-29T03:48:33.152Z,12.02
2023-01-29T03:51:31.667Z,11.57
2023-01-29T03:54:24.134Z,11.63
2023-01-29T03:57:41.100Z,11.13
2023-01-29T04:00:31.942Z,11.95
2023-01-29T04:03:19.987Z,10.85
2023-01-29T04:06:11.289Z,10.95
2023-01-29T04:09:26.077Z,10.73
2023-01-29T04:12:12.201Z,11.05
2023-01-29T04:14:47.969Z,11.65
2023-01-29T04:17:23.524Z,11.98
2023-01-29T04:20:18.892Z,11.75
2023-01-29T04:23:15.837Z,11.48
2023-01-29T04:26:28.119Z,11.77
2023-01-29T04:29:18.181Z,11.45
2023-01-29T04:32:24.419Z,11.73
2023-01-29T04:34:58.691Z,11.50
2023-01-29T04:37:46.399Z,10.73
2023-01-29T04:40:43.279Z,11.77
2023-01-29T04:43:46.458Z,11.48
2023-01-29T04:46:36.875Z,10.30
2023-01-29T04:49:30.206Z,14.18
2023-01-29T04:52:23.908Z,12.20
2023-01-29T04:55:38.575Z,12.33
2023-01-29T05:01:09.199Z,11.85
2023-01-29T05:03:42.573Z,12.43
2023-01-29T05:06:15.251Z,11.95
2023-01-29T05:08:46.439Z,14.82
2023-01-29T05:11:18.402Z,14.02
2023-01-29T05:13:51.188Z,13.52
2023-01-29T05:16:30.898Z,12.75
2023-01-29T05:19:02.276Z,13.15
2023-01-29T05:21:34.482Z,12.70
2023-01-29T05:24:19.560Z,12.25
2023-01-29T05:27:10.578Z,13.00
2023-01-29T05:29:48.950Z,13.48
2023-01-29T05:32:20.184Z,12.77
2023-01-29T05:34:51.327Z,12.77
2023-01-29T05:37:22.986Z,12.15
2023-01-29T05:40:13.512Z,12.73
2023-01-29T05:42:46.274Z,12.48
2023-01-29T05:45:19.689Z,11.57
2023-01-29T05:47:50.986Z,12.13
2023-01-29T05:50:34.408Z,12.00
2023-01-29T05:53:07.239Z,11.93
2023-01-29T05:55:38.549Z,12.38
2023-01-29T05:58:29.284Z,11.95
2023-01-29T06:01:00.683Z,11.60
2023-01-29T06:03:32.026Z,12.10
2023-01-29T06:06:06.188Z,10.88
2023-01-29T06:12:03.179Z,11.45
2023-01-29T06:14:34.236Z,12.05
2023-01-29T06:17:06.471Z,11.32
2023-01-29T06:19:41.320Z,11.10
2023-01-29T06:25:05.284Z,11.52
2023-01-29T06:27:46.320Z,11.20
2023-01-29T06:30:18.000Z,10.50
2023-01-29T06:33:10.775Z,11.02
2023-01-29T06:35:42.031Z,10.65
2023-01-29T06:38:13.299Z,11.50
2023-01-29T06:40:44.962Z,11.23
2023-01-29T06:43:15.912Z,10.88
2023-01-29T06:46:04.174Z,11.05
2023-01-29T06:48:36.339Z,10.52
2023-01-29T06:51:10.695Z,10.15
2023-01-29T06:53:45.332Z,10.07
2023-01-29T06:56:39.737Z,9.98
2023-01-29T06:59:30.658Z,10.45
2023-01-29T07:02:02.053Z,11.15
2023-01-29T07:04:33.060Z,10.60
2023-01-29T07:07:06.567Z,10.32
2023-01-29T07:09:59.649Z,10.55
2023-01-29T07:12:31.022Z,10.02
2023-01-29T07:15:25.865Z,10.60
2023-01-29T07:18:01.918Z,10.68
2023-01-29T07:20:34.775Z,11.45
2023-01-29T07:23:06.281Z,9.60
2023-01-29T07:25:38.771Z,10.60
2023-01-29T07:28:32.672Z,10.05
2023-01-29T07:31:24.210Z,10.05
2023-01-29T07:33:55.536Z,10.23
2023-01-29T07:36:26.658Z,10.13
2023-01-29T07:38:57.752Z,10.73
2023-01-29T07:41:32.573Z,9.90
2023-01-29T07:44:03.686Z,9.25
2023-01-29T07:46:34.812Z,10.00
2023-01-29T07:49:25.734Z,9.52
2023-01-29T07:52:01.449Z,9.02
2023-01-29T07:54:33.472Z,10.15
2023-01-29T07:57:05.313Z,9.73
2023-01-29T07:59:36.488Z,9.43
2023-01-29T08:02:09.541Z,9.48
2023-01-29T08:04:40.631Z,9.10
2023-01-29T08:07:11.770Z,9.07
2023-01-29T08:09:42.958Z,9.35
2023-01-29T08:12:22.326Z,9.07
2023-01-29T08:14:56.690Z,9.80
2023-01-29T08:17:28.528Z,9.07
2023-01-29T08:20:00.847Z,8.93
2023-01-29T08:22:51.983Z,10.02
2023-01-29T08:25:24.139Z,8.55
2023-01-29T08:27:55.153Z,10.13
2023-01-29T08:30:27.292Z,8.60
2023-01-29T08:32:58.616Z,9.90
2023-01-29T08:36:11.209Z,8.35
2023-01-29T08:39:03.401Z,9.23
2023-01-29T08:41:35.137Z,9.68
2023-01-29T08:44:08.515Z,8.98
2023-01-29T08:46:43.480Z,8.38
2023-01-29T08:49:15.575Z,8.80
2023-01-29T08:51:48.586Z,9.93
2023-01-29T08:54:21.916Z,9.88
2023-01-29T08:56:55.078Z,9.20
2023-01-29T08:59:26.115Z,9.00
2023-01-29T09:02:08.498Z,9.05
2023-01-29T09:04:39.512Z,9.68
2023-01-29T09:07:11.304Z,8.77
2023-01-29T09:09:43.119Z,9.38
2023-01-29T09:12:19.501Z,12.85
2023-01-29T09:14:50.652Z,14.45
2023-01-29T09:17:22.135Z,14.25
2023-01-29T09:19:54.646Z,14.00
2023-01-29T09:22:45.655Z,13.50
2023-01-29T09:25:40.135Z,15.20
2023-01-29T09:28:11.592Z,14.25
2023-01-29T09:30:42.790Z,14.15
2023-01-29T09:33:14.103Z,14.90
2023-01-29T09:35:48.805Z,14.52
2023-01-29T09:38:26.697Z,14.20
2023-01-29T09:41:17.737Z,14.15
2023-01-29T09:43:59.904Z,13.30
2023-01-29T09:46:42.809Z,14.15
2023-01-29T09:49:39.286Z,13.13
2023-01-29T09:52:24.371Z,14.73
2023-01-29T09:55:14.709Z,13.63
2023-01-29T09:58:02.658Z,12.75
2023-01-29T10:00:59.917Z,14.20
2023-01-29T10:03:50.893Z,14.23
2023-01-29T10:06:38.697Z,13.95
2023-01-29T10:09:31.480Z,13.00
2023-01-29T10:12:17.846Z,13.50
2023-01-29T10:14:56.369Z,13.07
2023-01-29T10:17:51.989Z,13.88
2023-01-29T10:20:32.498Z,13.57
2023-01-29T10:23:16.233Z,13.00
2023-01-29T10:25:48.681Z,13.88
2023-01-29T10:28:47.909Z,12.82
2023-01-29T10:31:42.339Z,13.20
2023-01-29T10:34:44.165Z,12.73
2023-01-29T10:37:53.704Z,13.55
2023-01-29T10:40:41.480Z,12.88
2023-01-29T10:43:37.118Z,12.63
2023-01-29T10:46:21.789Z,12.70
2023-01-29T10:49:07.803Z,13.13
2023-01-29T10:51:55.859Z,12.48
2023-01-29T10:54:32.647Z,13.52
2023-01-29T10:57:25.682Z,12.90
2023-01-29T11:00:24.115Z,13.07
2023-01-29T11:02:56.043Z,13.23
2023-01-29T11:05:50.734Z,12.48
2023-01-29T11:08:30.382Z,11.85
2023-01-29T11:11:40.237Z,12.70
2023-01-29T11:14:27.762Z,12.40
2023-01-29T11:17:01.992Z,12.38
2023-01-29T11:19:45.533Z,12.48
2023-01-29T11:22:36.540Z,13.07
2023-01-29T11:25:19.564Z,11.73
2023-01-29T11:28:02.497Z,13.27
2023-01-29T11:30:35.549Z,12.40
2023-01-29T11:33:28.322Z,12.00
2023-01-29T11:36:02.094Z,12.40
2023-01-29T11:38:34.806Z,12.25
2023-01-29T11:41:16.629Z,11.82
2023-01-29T11:43:47.688Z,12.70
2023-01-29T11:46:21.011Z,11.98
2023-01-29T11:49:02.443Z,12.15
2023-01-29T11:51:40.991Z,11.30
2023-01-29T11:54:21.267Z,11.25
2023-01-29T11:57:12.486Z,12.63
2023-01-29T11:59:52.188Z,12.43
2023-01-29T12:02:32.351Z,11.80
2023-01-29T12:05:16.675Z,12.60
2023-01-29T12:07:53.467Z,12.07
2023-01-29T12:10:45.923Z,11.95
2023-01-29T12:13:26.754Z,12.15
2023-01-29T12:16:22.766Z,12.32
2023-01-29T12:19:07.851Z,12.23
2023-01-29T12:21:58.008Z,12.10
2023-01-29T12:28:39.576Z,12.05
2023-01-29T12:32:00.955Z,12.25
2023-01-29T12:34:55.128Z,13.27
2023-01-29T12:37:57.109Z,12.60
2023-01-29T12:40:46.361Z,11.95
2023-01-29T12:43:27.289Z,11.70
2023-01-29T12:46:01.449Z,11.43
2023-01-29T12:48:44.206Z,11.55
2023-01-29T12:51:24.320Z,12.07
2023-01-29T12:54:01.092Z,12.23
2023-01-29T12:56:48.795Z,12.30
2023-01-29T12:59:20.248Z,11.52
2023-01-29T13:02:01.116Z,11.57
2023-01-29T13:05:26.761Z,12.30
2023-01-29T13:08:14.008Z,12.38
2023-01-29T13:10:52.598Z,12.35
2023-01-29T13:14:00.849Z,13.80
2023-01-29T13:16:45.556Z,13.50
2023-01-29T13:19:35.724Z,12.95
2023-01-29T13:22:19.111Z,12.98
2023-01-29T13:25:03.631Z,13.20
2023-01-29T13:27:37.658Z,11.85
2023-01-29T13:30:38.438Z,13.23
2023-01-29T13:33:25.673Z,12.82
2023-01-29T13:36:23.083Z,12.67
2023-01-29T13:39:19.972Z,12.85
2023-01-29T13:41:56.024Z,12.88
2023-01-29T13:44:40.297Z,13.15
2023-01-29T13:49:58.501Z,12.15
2023-01-29T13:52:44.970Z,12.68
2023-01-29T13:55:32.859Z,13.65
2023-01-29T13:58:26.410Z,13.18
2023-01-29T14:00:58.549Z,13.53
2023-01-29T14:03:39.858Z,13.50
2023-01-29T14:06:48.963Z,13.25
2023-01-29T14:09:38.988Z,13.63
2023-01-29T14:12:26.051Z,12.80
2023-01-29T14:15:22.651Z,14.73
2023-01-29T14:21:04.741Z,13.48
2023-01-29T14:23:56.845Z,14.05
2023-01-29T14:26:47.329Z,13.18
2023-01-29T14:29:35.357Z,13.60
2023-01-29T14:32:32.128Z,12.88
2023-01-29T14:35:30.829Z,13.93
2023-01-29T14:38:31.874Z,13.38
2023-01-29T14:41:32.032Z,13.88
2023-01-29T14:44:41.891Z,13.20
2023-01-29T14:47:47.858Z,13.32
2023-01-29T14:50:35.329Z,14.07
2023-01-29T14:53:22.997Z,13.90
2023-01-29T14:56:24.850Z,13.85
2023-01-29T14:59:16.022Z,14.07
2023-01-29T15:01:57.603Z,14.05
2023-01-29T15:04:48.737Z,13.90
2023-01-29T15:08:10.027Z,14.63
2023-01-29T15:11:18.516Z,15.18
2023-01-29T15:14:27.683Z,14.77
2023-01-29T15:17:24.930Z,16.20
2023-01-29T15:19:56.658Z,15.95
2023-01-29T15:22:30.770Z,15.13
2023-01-29T15:28:03.151Z,18.95
2023-01-29T15:30:37.858Z,19.83
2023-01-29T15:33:12.213Z,19.35
2023-01-29T15:35:44.893Z,21.42
2023-01-29T15:38:49.423Z,19.73
2023-01-29T15:41:23.339Z,18.33
2023-01-29T15:44:20.450Z,19.77
2023-01-29T15:46:57.642Z,19.02
2023-01-29T15:49:37.864Z,19.83
2023-01-29T15:52:17.835Z,17.77
2023-01-29T15:54:50.725Z,19.05
2023-01-29T15:57:29.200Z,18.60
2023-01-29T16:00:01.831Z,17.27
2023-01-29T16:05:31.788Z,18.90
2023-01-29T16:08:03.630Z,17.83
2023-01-29T16:10:36.434Z,17.70
2023-01-29T16:13:07.905Z,18.00
2023-01-29T16:15:42.320Z,18.55
2023-01-29T16:18:39.494Z,18.63
2023-01-29T16:21:39.760Z,18.27
2023-01-29T16:24:16.220Z,17.65
2023-01-29T16:26:55.167Z,19.40
2023-01-29T16:29:33.657Z,17.20
2023-01-29T16:32:06.607Z,18.67
2023-01-29T16:34:48.269Z,16.80
2023-01-29T16:37:45.094Z,17.35
2023-01-29T16:40:36.018Z,18.52
2023-01-29T16:43:37.513Z,16.02
2023-01-29T16:46:42.725Z,17.27
2023-01-29T16:49:33.863Z,18.20
2023-01-29T16:52:26.490Z,16.95
2023-01-29T16:55:24.437Z,17.60
2023-01-29T16:57:59.075Z,16.10
2023-01-29T17:00:54.549Z,16.23
2023-01-29T17:03:30.999Z,16.75
2023-01-29T17:06:16.129Z,16.92
2023-01-29T17:08:47.689Z,16.25
2023-01-29T17:11:35.760Z,16.92
2023-01-29T17:14:09.591Z,16.30
2023-01-29T17:16:56.865Z,16.23
2023-01-29T17:19:28.236Z,15.93
2023-01-29T17:22:06.388Z,17.08
2023-01-29T17:24:37.725Z,16.02
2023-01-29T17:27:14.413Z,16.55
2023-01-29T17:29:45.508Z,15.95
2023-01-29T17:32:23.035Z,16.00
2023-01-29T17:35:17.228Z,15.02
2023-01-29T17:37:49.795Z,16.58
2023-01-29T17:40:41.030Z,15.85
2023-01-29T17:43:13.332Z,17.15
2023-01-29T17:45:45.952Z,16.52
2023-01-29T17:48:22.848Z,16.88
2023-01-29T17:50:56.717Z,15.68
2023-01-29T17:53:44.200Z,16.23
2023-01-29T17:56:25.560Z,16.33
2023-01-29T17:58:57.127Z,16.10
2023-01-29T18:01:28.464Z,16.23
2023-01-29T18:03:59.845Z,15.35
2023-01-29T18:06:32.092Z,15.63
2023-01-29T18:09:06.521Z,17.65
2023-01-29T18:11:40.646Z,15.10
2023-01-29T18:14:31.526Z,15.52
2023-01-29T18:17:12.485Z,15.57
2023-01-29T18:20:14.370Z,15.57
2023-01-29T18:22:45.193Z,15.15
2023-01-29T18:25:17.113Z,15.70
2023-01-29T18:27:48.562Z,16.05
2023-01-29T18:30:19.954Z,14.70
2023-01-29T18:32:51.915Z,15.55
2023-01-29T18:35:23.843Z,15.73
2023-01-29T18:37:55.187Z,15.02
2023-01-29T18:40:27.276Z,16.52
2023-01-29T18:43:01.309Z,15.05
2023-01-29T18:45:33.489Z,15.48
2023-01-29T18:48:05.256Z,15.07
2023-01-29T18:50:36.681Z,14.73
2023-01-29T18:53:07.695Z,15.68
2023-01-29T18:55:41.203Z,15.05
2023-01-29T18:58:26.957Z,15.18
2023-01-29T19:01:01.286Z,15.38
2023-01-29T19:03:32.262Z,14.15
2023-01-29T19:06:04.880Z,15.63
2023-01-29T19:08:56.728Z,14.95
2023-01-29T19:11:27.832Z,15.65
2023-01-29T19:13:58.902Z,15.02
2023-01-29T19:16:29.910Z,15.65
2023-01-29T19:19:04.306Z,14.93
2023-01-29T19:21:55.864Z,15.30
2023-01-29T19:24:27.549Z,14.10
2023-01-29T19:26:59.226Z,14.38
2023-01-29T19:29:30.401Z,14.88
2023-01-29T19:32:01.354Z,14.63
2023-01-29T19:34:32.388Z,14.68
2023-01-29T19:37:03.138Z,14.73
2023-01-29T19:39:35.481Z,15.93
2023-01-29T19:42:07.426Z,15.05
2023-01-29T19:44:40.277Z,15.20
2023-01-29T19:47:11.344Z,13.95
2023-01-29T19:49:42.340Z,14.93
2023-01-29T19:52:41.490Z,13.98
2023-01-29T19:55:22.401Z,14.25
2023-01-29T19:57:55.475Z,14.60
2023-01-29T20:00:26.732Z,14.13
2023-01-29T20:02:57.678Z,13.98
2023-01-29T20:05:28.516Z,14.60
2023-01-29T20:07:59.459Z,14.88
2023-01-29T20:10:30.165Z,14.48
2023-01-29T20:13:01.095Z,14.18
2023-01-29T20:15:31.788Z,14.52
2023-01-29T20:18:02.641Z,14.30
2023-01-29T20:20:33.596Z,15.02
2023-01-29T20:23:37.322Z,14.80
2023-01-29T20:26:11.331Z,14.98
2023-01-29T20:28:43.140Z,14.67
2023-01-29T20:31:14.021Z,14.60
2023-01-29T20:34:04.634Z,13.93
2023-01-29T20:36:35.461Z,15.10
2023-01-29T20:39:06.634Z,15.23
2023-01-29T20:41:38.705Z,13.90
2023-01-29T20:44:10.083Z,14.95
2023-01-29T20:46:41.068Z,14.48
2023-01-29T20:49:13.131Z,14.27
2023-01-29T20:51:44.716Z,15.02
2023-01-29T20:54:16.732Z,15.65
2023-01-29T20:57:07.655Z,14.57
2023-01-29T20:59:38.460Z,14.13
2023-01-29T21:02:11.414Z,14.70
2023-01-29T21:04:44.307Z,16.48
2023-01-29T21:07:15.424Z,14.90
2023-01-29T21:09:46.616Z,13.45
2023-01-29T21:12:17.475Z,15.00
2023-01-29T21:14:48.501Z,13.95
2023-01-29T21:17:19.275Z,14.52
2023-01-29T21:20:11.423Z,13.45
2023-01-29T21:22:45.450Z,14.20
2023-01-29T21:27:47.131Z,14.57
2023-01-29T21:30:19.791Z,13.77
2023-01-29T21:32:50.908Z,13.82
2023-01-29T21:35:24.906Z,14.60
2023-01-29T21:40:29.258Z,13.90
2023-01-29T21:43:18.971Z,13.20
2023-01-29T21:45:56.672Z,13.30
2023-01-29T21:48:27.769Z,13.68
2023-01-29T21:50:58.944Z,14.98
2023-01-29T21:53:29.714Z,14.80
2023-01-29T21:56:27.753Z,13.07
2023-01-29T21:59:02.275Z,14.43
2023-01-29T22:01:36.258Z,13.05
2023-01-29T22:04:10.900Z,13.88
2023-01-29T22:06:43.137Z,14.02
2023-01-29T22:09:14.728Z,13.90
2023-01-29T22:11:55.312Z,13.57
2023-01-29T22:14:46.243Z,13.88
2023-01-29T22:17:18.128Z,13.85
2023-01-29T22:19:52.124Z,14.82
2023-01-29T22:24:56.774Z,13.77
2023-01-29T22:27:27.912Z,13.52
2023-01-29T22:29:58.880Z,13.40
2023-01-29T22:32:30.086Z,14.00
2023-01-29T22:35:23.866Z,14.15
2023-01-29T22:37:57.483Z,13.38
2023-01-29T22:40:28.787Z,13.88
2023-01-29T22:43:19.305Z,14.00
2023-01-29T22:45:50.238Z,13.48
2023-01-29T22:48:21.065Z,13.45
2023-01-29T22:51:11.637Z,13.15
2023-01-29T22:53:58.112Z,13.35
2023-01-29T22:56:32.178Z,13.93
2023-01-29T22:59:03.436Z,13.82
2023-01-29T23:01:35.049Z,13.07
2023-01-29T23:04:05.900Z,14.45
2023-01-29T23:06:36.953Z,14.20
2023-01-29T23:09:07.632Z,14.18
2023-01-29T23:11:38.309Z,13.57
2023-01-29T23:14:09.217Z,14.02
2023-01-29T23:16:40.205Z,13.68
2023-01-29T23:19:11.876Z,13.05
2023-01-29T23:21:42.788Z,14.30
2023-01-29T23:24:14.525Z,13.02
2023-01-29T23:27:17.330Z,14.60
2023-01-29T23:30:14.037Z,12.73
2023-01-29T23:32:45.140Z,14.20
2023-01-29T23:35:19.056Z,14.02
2023-01-29T23:37:50.060Z,13.38
2023-01-29T23:40:21.012Z,13.10
2023-01-29T23:42:52.060Z,13.60
2023-01-29T23:45:23.007Z,13.90
2023-01-29T23:47:53.873Z,13.20
2023-01-29T23:50:24.963Z,14.38
2023-01-29T23:52:55.918Z,14.00
2023-01-29T23:55:27.240Z,13.80
2023-01-29T23:57:57.990Z,13.73
